createdAt,value
2018-04-02T00:00:39.699Z,22.9
2018-04-02T00:01:29.124Z,22.8
2018-04-02T00:02:19.261Z,22.8
2018-04-02T00:03:10.394Z,22.8
2018-04-02T00:04:00.274Z,22.8
2018-04-02T00:04:50.988Z,22.8
2018-04-02T00:05:40.164Z,22.8
2018-04-02T00:06:30.748Z,22.7
2018-04-02T00:07:19.135Z,22.6
2018-04-02T00:08:11.062Z,22.7
2018-04-02T00:09:00.866Z,22.7
2018-04-02T00:09:51.167Z,22.7
2018-04-02T00:10:41.533Z,22.6
2018-04-02T00:11:31.288Z,22.6
2018-04-02T00:12:20.996Z,22.6
2018-04-02T00:13:11.383Z,22.6
2018-04-02T00:14:01.286Z,22.6
2018-04-02T00:14:50.940Z,22.6
2018-04-02T00:15:41.540Z,22.6
2018-04-02T00:16:31.904Z,22.5
2018-04-02T00:17:21.821Z,22.5
2018-04-02T00:18:11.628Z,22.5
2018-04-02T00:19:01.268Z,22.5
2018-04-02T00:19:51.735Z,22.5
2018-04-02T00:20:41.318Z,22.5
2018-04-02T00:21:31.525Z,22.6
2018-04-02T00:22:22.011Z,22.6
2018-04-02T00:23:12.132Z,22.6
2018-04-02T00:24:02.259Z,22.6
2018-04-02T00:24:51.496Z,22.6
2018-04-02T00:25:42.152Z,22.6
2018-04-02T00:26:32.087Z,22.6
2018-04-02T00:27:21.970Z,22.7
2018-04-02T00:28:12.152Z,22.7
2018-04-02T00:29:02.562Z,22.7
2018-04-02T00:29:52.279Z,22.8
2018-04-02T00:30:41.987Z,22.8
2018-04-02T00:31:32.864Z,22.8
2018-04-02T00:32:21.947Z,22.8
2018-04-02T00:33:12.007Z,22.9
2018-04-02T00:34:03.144Z,22.9
2018-04-02T00:34:52.527Z,22.9
2018-04-02T00:35:43.525Z,22.9
2018-04-02T00:36:33.569Z,23
2018-04-02T00:37:23.919Z,23
2018-04-02T00:38:13.682Z,22.9
2018-04-02T00:39:04.327Z,22.9
2018-04-02T00:39:53.566Z,22.9
2018-04-02T00:40:43.314Z,22.9
2018-04-02T00:41:33.169Z,22.9
2018-04-02T00:42:23.291Z,22.9
2018-04-02T00:43:13.896Z,22.9
2018-04-02T00:44:03.672Z,22.8
2018-04-02T00:44:53.998Z,22.8
2018-04-02T00:45:43.880Z,22.8
2018-04-02T00:46:34.183Z,22.8
2018-04-02T00:47:24.984Z,22.7
2018-04-02T00:48:14.731Z,22.7
2018-04-02T00:49:04.814Z,22.7
2018-04-02T00:49:54.524Z,22.6
2018-04-02T00:50:44.959Z,22.7
2018-04-02T00:51:34.191Z,22.6
2018-04-02T00:52:24.719Z,22.6
2018-04-02T00:53:15.115Z,22.6
2018-04-02T00:54:05.148Z,22.6
2018-04-02T00:54:55.517Z,22.6
2018-04-02T00:55:44.717Z,22.6
2018-04-02T00:56:35.565Z,22.6
2018-04-02T00:57:23.616Z,22.6
2018-04-02T00:58:14.771Z,22.6
2018-04-02T00:59:04.699Z,22.6
2018-04-02T00:59:55.095Z,22.6
2018-04-02T01:00:44.300Z,22.6
2018-04-02T01:01:34.817Z,22.6
2018-04-02T01:02:24.892Z,22.7
2018-04-02T01:03:14.703Z,22.7
2018-04-02T01:04:03.846Z,22.8
2018-04-02T01:04:54.540Z,22.8
2018-04-02T01:05:44.832Z,22.8
2018-04-02T01:06:35.305Z,22.8
2018-04-02T01:07:24.443Z,22.8
2018-04-02T01:08:15.705Z,22.8
2018-04-02T01:09:04.905Z,22.8
2018-04-02T01:09:55.355Z,22.9
2018-04-02T01:10:46.005Z,22.9
2018-04-02T01:11:35.278Z,22.9
2018-04-02T01:12:25.885Z,22.9
2018-04-02T01:13:15.258Z,22.9
2018-04-02T01:14:05.560Z,22.9
2018-04-02T01:14:55.905Z,22.9
2018-04-02T01:15:46.532Z,22.9
2018-04-02T01:16:35.743Z,22.9
2018-04-02T01:17:25.719Z,22.9
2018-04-02T01:18:16.044Z,22.8
2018-04-02T01:19:05.914Z,22.8
2018-04-02T01:19:56.067Z,22.8
2018-04-02T01:20:45.493Z,22.8
2018-04-02T01:21:36.019Z,22.8
2018-04-02T01:22:26.384Z,22.8
2018-04-02T01:23:15.652Z,22.8
2018-04-02T01:24:05.397Z,22.7
2018-04-02T01:24:56.777Z,22.7
2018-04-02T01:25:46.699Z,22.7
2018-04-02T01:26:36.239Z,22.7
2018-04-02T01:27:26.252Z,22.7
2018-04-02T01:28:15.515Z,22.6
2018-04-02T01:29:06.570Z,22.6
2018-04-02T01:29:56.895Z,22.6
2018-04-02T01:30:47.049Z,22.6
2018-04-02T01:31:36.119Z,22.6
2018-04-02T01:32:27.415Z,22.6
2018-04-02T01:33:16.327Z,22.6
2018-04-02T01:34:06.237Z,22.6
2018-04-02T01:34:57.766Z,22.6
2018-04-02T01:35:47.344Z,22.6
2018-04-02T01:36:37.746Z,22.6
2018-04-02T01:37:27.051Z,22.6
2018-04-02T01:38:16.941Z,22.6
2018-04-02T01:39:07.463Z,22.6
2018-04-02T01:39:57.615Z,22.6
2018-04-02T01:40:47.864Z,22.7
2018-04-02T01:41:37.898Z,22.7
2018-04-02T01:42:28.372Z,22.8
2018-04-02T01:43:17.653Z,22.8
2018-04-02T01:44:07.743Z,22.8
2018-04-02T01:44:57.508Z,22.8
2018-04-02T01:45:47.778Z,22.9
2018-04-02T01:46:37.636Z,22.9
2018-04-02T01:47:27.808Z,22.9
2018-04-02T01:48:18.833Z,22.9
2018-04-02T01:49:09.138Z,23
2018-04-02T01:49:59.469Z,23
2018-04-02T01:50:49.344Z,23
2018-04-02T01:51:39.055Z,23
2018-04-02T01:52:29.374Z,22.9
2018-04-02T01:53:18.868Z,22.9
2018-04-02T01:54:08.995Z,22.9
2018-04-02T01:54:58.557Z,22.9
2018-04-02T01:55:48.609Z,22.9
2018-04-02T01:56:39.147Z,22.9
2018-04-02T01:57:27.645Z,22.8
2018-04-02T01:58:19.166Z,22.8
2018-04-02T01:59:07.703Z,22.8
2018-04-02T01:59:58.712Z,22.8
2018-04-02T02:00:47.976Z,22.8
2018-04-02T02:01:39.338Z,22.8
2018-04-02T02:02:28.986Z,22.8
2018-04-02T02:03:19.322Z,22.8
2018-04-02T02:04:08.426Z,22.7
2018-04-02T02:04:58.724Z,22.7
2018-04-02T02:05:48.552Z,22.7
2018-04-02T02:06:40.285Z,22.7
2018-04-02T02:07:28.554Z,22.7
2018-04-02T02:08:19.194Z,22.6
2018-04-02T02:09:09.076Z,22.6
2018-04-02T02:09:58.938Z,22.6
2018-04-02T02:10:50.166Z,22.6
2018-04-02T02:11:38.685Z,22.6
2018-04-02T02:12:29.365Z,22.6
2018-04-02T02:13:19.769Z,22.6
2018-04-02T02:14:09.250Z,22.6
2018-04-02T02:14:58.928Z,22.6
2018-04-02T02:15:49.936Z,22.6
2018-04-02T02:16:39.040Z,22.7
2018-04-02T02:17:29.374Z,22.7
2018-04-02T02:18:19.186Z,22.7
2018-04-02T02:19:09.674Z,22.8
2018-04-02T02:20:00.441Z,22.8
2018-04-02T02:20:50.901Z,22.8
2018-04-02T02:21:40.158Z,22.8
2018-04-02T02:22:30.648Z,22.8
2018-04-02T02:23:20.906Z,22.9
2018-04-02T02:24:09.987Z,22.9
2018-04-02T02:25:01.533Z,22.9
2018-04-02T02:25:51.283Z,22.9
2018-04-02T02:26:40.570Z,22.9
2018-04-02T02:27:30.566Z,23
2018-04-02T02:28:20.939Z,23
2018-04-02T02:29:10.076Z,23
2018-04-02T02:30:00.296Z,23
2018-04-02T02:30:51.262Z,22.9
2018-04-02T02:31:41.146Z,22.9
2018-04-02T02:32:30.982Z,22.9
2018-04-02T02:33:21.203Z,22.9
2018-04-02T02:34:11.428Z,22.9
2018-04-02T02:35:01.393Z,22.8
2018-04-02T02:35:51.139Z,22.8
2018-04-02T02:36:41.009Z,22.8
2018-04-02T02:37:31.943Z,22.8
2018-04-02T02:38:22.199Z,22.8
2018-04-02T02:39:11.479Z,22.8
2018-04-02T02:40:02.767Z,22.8
2018-04-02T02:40:51.814Z,22.8
2018-04-02T02:41:42.064Z,22.8
2018-04-02T02:42:31.765Z,22.8
2018-04-02T02:43:22.082Z,22.7
2018-04-02T02:44:12.122Z,22.7
2018-04-02T02:45:02.307Z,22.7
2018-04-02T02:45:52.441Z,22.6
2018-04-02T02:46:41.735Z,22.6
2018-04-02T02:47:33.438Z,22.6
2018-04-02T02:48:22.608Z,22.6
2018-04-02T02:49:12.534Z,22.6
2018-04-02T02:50:02.937Z,22.6
2018-04-02T02:50:53.966Z,22.6
2018-04-02T02:51:43.425Z,22.6
2018-04-02T02:52:34.147Z,22.6
2018-04-02T02:53:23.279Z,22.6
2018-04-02T02:54:13.912Z,22.6
2018-04-02T02:55:03.418Z,22.6
2018-04-02T02:55:54.019Z,22.6
2018-04-02T02:56:44.325Z,22.6
2018-04-02T02:57:34.421Z,22.6
2018-04-02T02:58:23.629Z,22.6
2018-04-02T02:59:14.274Z,22.6
2018-04-02T03:00:04.071Z,22.6
2018-04-02T03:00:54.387Z,22.6
2018-04-02T03:01:44.736Z,22.6
2018-04-02T03:02:34.015Z,22.6
2018-04-02T03:03:25.194Z,22.7
2018-04-02T03:04:14.038Z,22.7
2018-04-02T03:05:03.603Z,22.7
2018-04-02T03:05:53.037Z,22.8
2018-04-02T03:06:44.000Z,22.8
2018-04-02T03:07:34.111Z,22.8
2018-04-02T03:08:23.524Z,22.8
2018-04-02T03:09:14.095Z,22.8
2018-04-02T03:10:04.595Z,22.9
2018-04-02T03:10:52.293Z,22.9
2018-04-02T03:11:43.649Z,22.9
2018-04-02T03:12:33.712Z,22.9
2018-04-02T03:13:24.758Z,22.9
2018-04-02T03:14:13.928Z,23
2018-04-02T03:15:04.403Z,23.1
2018-04-02T03:15:54.552Z,23.1
2018-04-02T03:16:44.592Z,23.1
2018-04-02T03:17:34.260Z,23.1
2018-04-02T03:18:24.140Z,23.1
2018-04-02T03:19:13.725Z,23.1
2018-04-02T03:20:04.539Z,23
2018-04-02T03:20:54.490Z,23
2018-04-02T03:21:43.968Z,22.9
2018-04-02T03:22:35.346Z,22.9
2018-04-02T03:23:24.840Z,22.9
2018-04-02T03:24:16.093Z,22.8
2018-04-02T03:25:55.328Z,22.8
2018-04-02T03:26:45.227Z,22.8
2018-04-02T03:27:35.349Z,22.8
2018-04-02T03:28:25.070Z,22.8
2018-04-02T03:29:15.205Z,22.8
2018-04-02T03:30:04.834Z,22.8
2018-04-02T03:30:55.091Z,22.7
2018-04-02T03:31:46.463Z,22.7
2018-04-02T03:32:35.854Z,22.7
2018-04-02T03:33:25.224Z,22.7
2018-04-02T03:34:15.119Z,22.7
2018-04-02T03:35:06.351Z,22.7
2018-04-02T03:35:56.421Z,22.6
2018-04-02T03:36:46.553Z,22.6
2018-04-02T03:37:36.181Z,22.6
2018-04-02T03:38:25.182Z,22.6
2018-04-02T03:39:16.013Z,22.6
2018-04-02T03:40:07.276Z,22.6
2018-04-02T03:40:56.583Z,22.7
2018-04-02T03:41:45.906Z,22.7
2018-04-02T03:42:35.685Z,22.7
2018-04-02T03:43:26.623Z,22.7
2018-04-02T03:44:17.001Z,22.8
2018-04-02T03:45:05.952Z,22.8
2018-04-02T03:45:55.965Z,22.8
2018-04-02T03:46:45.780Z,22.8
2018-04-02T03:47:36.051Z,22.9
2018-04-02T03:48:27.851Z,22.9
2018-04-02T03:49:17.305Z,22.9
2018-04-02T03:50:07.383Z,23
2018-04-02T03:50:57.724Z,22.9
2018-04-02T03:51:47.520Z,22.9
2018-04-02T03:52:38.143Z,23
2018-04-02T03:53:27.896Z,22.9
2018-04-02T03:54:18.255Z,22.9
2018-04-02T03:55:08.056Z,22.9
2018-04-02T03:55:58.093Z,22.9
2018-04-02T03:56:48.458Z,22.9
2018-04-02T03:57:38.839Z,22.9
2018-04-02T03:58:28.316Z,22.8
2018-04-02T03:59:17.498Z,22.8
2018-04-02T04:00:08.970Z,22.8
2018-04-02T04:00:57.880Z,22.8
2018-04-02T04:01:49.134Z,22.8
2018-04-02T04:02:38.314Z,22.7
2018-04-02T04:03:28.924Z,22.7
2018-04-02T04:04:18.685Z,22.7
2018-04-02T04:05:08.798Z,22.7
2018-04-02T04:05:57.972Z,22.6
2018-04-02T04:06:49.421Z,22.7
2018-04-02T04:07:38.111Z,22.7
2018-04-02T04:08:28.037Z,22.7
2018-04-02T04:09:17.619Z,22.7
2018-04-02T04:10:08.642Z,22.7
2018-04-02T04:10:58.517Z,22.7
2018-04-02T04:11:48.419Z,22.6
2018-04-02T04:12:39.051Z,22.6
2018-04-02T04:13:28.811Z,22.6
2018-04-02T04:14:19.181Z,22.6
2018-04-02T04:15:08.629Z,22.7
2018-04-02T04:15:58.411Z,22.7
2018-04-02T04:16:48.642Z,22.7
2018-04-02T04:17:39.446Z,22.8
2018-04-02T04:18:29.166Z,22.8
2018-04-02T04:19:19.031Z,22.8
2018-04-02T04:20:08.406Z,22.8
2018-04-02T04:20:58.556Z,22.9
2018-04-02T04:21:48.654Z,22.9
2018-04-02T04:22:39.004Z,22.9
2018-04-02T04:23:29.264Z,22.9
2018-04-02T04:24:19.238Z,23
2018-04-02T04:25:08.651Z,23
2018-04-02T04:25:58.463Z,23.1
2018-04-02T04:26:49.015Z,23.1
2018-04-02T04:27:40.490Z,23.1
2018-04-02T04:28:28.908Z,23.2
2018-04-02T04:29:19.194Z,23.1
2018-04-02T04:30:10.010Z,23.1
2018-04-02T04:30:59.877Z,23.1
2018-04-02T04:31:50.606Z,23.1
2018-04-02T04:32:39.640Z,23.1
2018-04-02T04:33:29.177Z,23.1
2018-04-02T04:34:19.696Z,23.1
2018-04-02T04:35:08.800Z,23
2018-04-02T04:35:59.882Z,22.9
2018-04-02T04:36:49.988Z,22.9
2018-04-02T04:37:39.384Z,22.8
2018-04-02T04:38:29.933Z,22.8
2018-04-02T04:39:19.883Z,22.8
2018-04-02T04:40:10.578Z,22.8
2018-04-02T04:41:00.420Z,22.8
2018-04-02T04:41:49.704Z,22.4
2018-04-02T04:42:40.725Z,22.3
2018-04-02T04:43:30.497Z,22.1
2018-04-02T04:44:20.915Z,21.8
2018-04-02T04:45:09.842Z,21.7
2018-04-02T04:46:01.273Z,21.5
2018-04-02T04:46:50.434Z,21.3
2018-04-02T04:47:40.915Z,21.2
2018-04-02T04:48:30.663Z,21.2
2018-04-02T04:49:21.249Z,21.1
2018-04-02T04:50:10.777Z,21
2018-04-02T04:51:01.224Z,20.9
2018-04-02T04:51:51.466Z,20.9
2018-04-02T04:52:41.041Z,20.9
2018-04-02T04:53:31.924Z,21.1
2018-04-02T04:54:21.367Z,21.2
2018-04-02T04:55:11.463Z,21.3
2018-04-02T04:56:01.609Z,21.4
2018-04-02T04:56:51.834Z,21.6
2018-04-02T04:57:41.334Z,21.8
2018-04-02T04:58:31.356Z,21.9
2018-04-02T04:59:22.139Z,22.1
2018-04-02T05:00:12.204Z,22.3
2018-04-02T05:01:01.971Z,22.3
2018-04-02T05:01:52.029Z,22.4
2018-04-02T05:02:42.058Z,22.4
2018-04-02T05:03:31.871Z,22.5
2018-04-02T05:04:22.328Z,22.5
2018-04-02T05:05:12.859Z,22.6
2018-04-02T05:06:02.281Z,22.6
2018-04-02T05:06:52.461Z,22.6
2018-04-02T05:07:43.050Z,22.6
2018-04-02T05:08:32.325Z,22.6
2018-04-02T05:09:23.417Z,22.6
2018-04-02T05:10:13.020Z,22.6
2018-04-02T05:11:02.192Z,22.6
2018-04-02T05:11:52.539Z,22.5
2018-04-02T05:12:43.547Z,22.5
2018-04-02T05:13:32.656Z,22.5
2018-04-02T05:14:23.150Z,22.5
2018-04-02T05:15:12.182Z,22.4
2018-04-02T05:16:03.220Z,22.4
2018-04-02T05:16:53.044Z,22.4
2018-04-02T05:17:42.496Z,22.4
2018-04-02T05:18:33.255Z,22.4
2018-04-02T05:19:23.489Z,22.4
2018-04-02T05:20:14.012Z,22.4
2018-04-02T05:21:03.714Z,22.4
2018-04-02T05:21:53.668Z,22.4
2018-04-02T05:22:43.571Z,22.4
2018-04-02T05:23:33.087Z,22.3
2018-04-02T05:24:23.567Z,22.3
2018-04-02T05:25:13.518Z,22.3
2018-04-02T05:26:03.140Z,22.3
2018-04-02T05:26:54.102Z,22.3
2018-04-02T05:27:45.274Z,22.3
2018-04-02T05:28:34.817Z,22.3
2018-04-02T05:29:25.135Z,22.3
2018-04-02T05:30:15.479Z,22.3
2018-04-02T05:31:05.226Z,22.3
2018-04-02T05:31:55.051Z,22.3
2018-04-02T05:32:45.125Z,22.3
2018-04-02T05:33:34.915Z,22.4
2018-04-02T05:34:25.596Z,22.4
2018-04-02T05:35:15.571Z,22.4
2018-04-02T05:36:05.677Z,22.5
2018-04-02T05:36:55.996Z,22.6
2018-04-02T05:37:44.330Z,22.6
2018-04-02T05:38:35.845Z,22.7
2018-04-02T05:39:24.820Z,22.7
2018-04-02T05:40:14.982Z,22.8
2018-04-02T05:41:03.964Z,22.8
2018-04-02T05:41:54.473Z,22.9
2018-04-02T05:42:44.971Z,22.9
2018-04-02T05:43:35.428Z,22.9
2018-04-02T05:44:26.243Z,22.9
2018-04-02T05:45:15.347Z,22.8
2018-04-02T05:46:05.447Z,22.8
2018-04-02T05:46:55.204Z,22.8
2018-04-02T05:47:44.844Z,22.8
2018-04-02T05:48:35.011Z,22.8
2018-04-02T05:49:25.283Z,22.8
2018-04-02T05:50:15.819Z,22.7
2018-04-02T05:51:04.704Z,22.6
2018-04-02T05:51:56.408Z,22.6
2018-04-02T05:52:45.282Z,22.6
2018-04-02T05:53:36.067Z,22.6
2018-04-02T05:54:25.011Z,22.6
2018-04-02T05:55:15.579Z,22.6
2018-04-02T05:56:05.581Z,22.6
2018-04-02T05:56:56.431Z,22.6
2018-04-02T05:57:45.554Z,22.6
2018-04-02T05:58:35.834Z,22.6
2018-04-02T05:59:27.064Z,22.6
2018-04-02T06:00:15.667Z,22.6
2018-04-02T06:01:06.119Z,22.6
2018-04-02T06:01:56.752Z,22.6
2018-04-02T06:02:46.929Z,22.6
2018-04-02T06:03:36.271Z,22.5
2018-04-02T06:04:27.031Z,22.5
2018-04-02T06:05:16.898Z,22.5
2018-04-02T06:06:06.801Z,22.5
2018-04-02T06:06:56.889Z,22.5
2018-04-02T06:07:46.761Z,22.5
2018-04-02T06:08:36.641Z,22.5
2018-04-02T06:09:26.445Z,22.4
2018-04-02T06:10:16.261Z,22.4
2018-04-02T06:11:07.412Z,22.4
2018-04-02T06:11:56.500Z,22.4
2018-04-02T06:12:46.469Z,22.4
2018-04-02T06:13:36.933Z,22.4
2018-04-02T06:14:27.274Z,22.5
2018-04-02T06:15:17.813Z,22.5
2018-04-02T06:16:07.148Z,22.6
2018-04-02T06:16:57.899Z,22.6
2018-04-02T06:17:47.205Z,22.6
2018-04-02T06:18:37.980Z,22.7
2018-04-02T06:19:27.493Z,22.7
2018-04-02T06:20:16.692Z,22.8
2018-04-02T06:21:07.853Z,22.8
2018-04-02T06:21:58.185Z,22.9
2018-04-02T06:22:46.977Z,22.9
2018-04-02T06:23:37.724Z,23
2018-04-02T06:24:29.162Z,23
2018-04-02T06:25:18.370Z,22.9
2018-04-02T06:26:07.971Z,22.9
2018-04-02T06:26:58.168Z,22.9
2018-04-02T06:27:48.415Z,22.9
2018-04-02T06:28:38.488Z,22.9
2018-04-02T06:29:28.570Z,22.9
2018-04-02T06:30:18.208Z,22.8
2018-04-02T06:31:09.259Z,22.8
2018-04-02T06:31:58.726Z,22.8
2018-04-02T06:32:47.509Z,22.8
2018-04-02T06:33:38.342Z,22.8
2018-04-02T06:34:29.091Z,22.7
2018-04-02T06:35:18.505Z,22.7
2018-04-02T06:36:08.820Z,22.7
2018-04-02T06:36:58.989Z,22.6
2018-04-02T06:37:49.633Z,22.6
2018-04-02T06:38:38.807Z,22.6
2018-04-02T06:39:28.902Z,22.6
2018-04-02T06:40:19.134Z,22.6
2018-04-02T06:41:08.309Z,22.6
2018-04-02T06:41:59.652Z,22.5
2018-04-02T06:42:49.263Z,22.5
2018-04-02T06:43:38.930Z,22.5
2018-04-02T06:44:29.547Z,22.5
2018-04-02T06:45:19.381Z,22.4
2018-04-02T06:46:09.654Z,22.4
2018-04-02T06:47:00.028Z,22.4
2018-04-02T06:47:49.485Z,22.4
2018-04-02T06:48:40.536Z,22.4
2018-04-02T06:49:29.891Z,22.4
2018-04-02T06:50:20.606Z,22.4
2018-04-02T06:51:10.221Z,22.4
2018-04-02T06:52:00.373Z,22.4
2018-04-02T06:52:50.751Z,22.4
2018-04-02T06:53:39.691Z,22.3
2018-04-02T06:54:30.655Z,22.3
2018-04-02T06:55:20.586Z,22.3
2018-04-02T06:56:10.174Z,22.3
2018-04-02T06:57:00.155Z,22.3
2018-04-02T06:57:50.707Z,22.3
2018-04-02T06:58:40.355Z,22.3
2018-04-02T06:59:30.656Z,22.3
2018-04-02T07:00:20.191Z,22.3
2018-04-02T07:01:10.818Z,22.3
2018-04-02T07:02:01.004Z,22.3
2018-04-02T07:02:50.318Z,22.3
2018-04-02T07:03:39.812Z,22.3
2018-04-02T07:04:31.122Z,22.3
2018-04-02T07:05:21.294Z,22.3
2018-04-02T07:06:10.889Z,22.3
2018-04-02T07:07:00.692Z,22.3
2018-04-02T07:07:50.967Z,22.3
2018-04-02T07:08:40.598Z,22.3
2018-04-02T07:09:30.737Z,22.3
2018-04-02T07:10:22.057Z,22.2
2018-04-02T07:11:10.777Z,22.3
2018-04-02T07:12:01.412Z,22.2
2018-04-02T07:12:51.475Z,22.2
2018-04-02T07:13:40.830Z,22.2
2018-04-02T07:14:31.866Z,22.1
2018-04-02T07:15:22.348Z,22.1
2018-04-02T07:16:11.417Z,22.1
2018-04-02T07:17:00.709Z,22.1
2018-04-02T07:17:52.338Z,22.1
2018-04-02T07:18:41.887Z,22.1
2018-04-02T07:19:31.946Z,22
2018-04-02T07:20:21.619Z,21.9
2018-04-02T07:21:11.702Z,21.9
2018-04-02T07:22:01.237Z,21.9
2018-04-02T07:22:51.685Z,21.9
2018-04-02T07:23:42.820Z,21.9
2018-04-02T07:24:32.779Z,21.8
2018-04-02T07:25:22.481Z,21.8
2018-04-02T07:26:12.017Z,21.8
2018-04-02T07:27:02.375Z,21.8
2018-04-02T07:27:51.492Z,21.8
2018-04-02T07:28:43.008Z,21.8
2018-04-02T07:29:33.251Z,21.8
2018-04-02T07:30:21.473Z,21.8
2018-04-02T07:31:12.599Z,21.8
2018-04-02T07:32:03.220Z,21.8
2018-04-02T07:32:53.472Z,21.8
2018-04-02T07:33:42.349Z,21.8
2018-04-02T07:34:32.336Z,21.8
2018-04-02T07:35:22.318Z,21.8
2018-04-02T07:36:13.293Z,21.8
2018-04-02T07:37:03.363Z,21.8
2018-04-02T07:37:53.076Z,21.8
2018-04-02T07:38:44.200Z,21.7
2018-04-02T07:39:34.373Z,21.7
2018-04-02T07:40:23.149Z,21.7
2018-04-02T07:41:13.008Z,21.7
2018-04-02T07:42:03.356Z,21.7
2018-04-02T07:42:53.783Z,21.7
2018-04-02T07:43:44.066Z,21.7
2018-04-02T07:44:33.868Z,21.6
2018-04-02T07:45:24.903Z,21.6
2018-04-02T07:46:13.591Z,21.6
2018-04-02T07:47:04.148Z,21.6
2018-04-02T07:47:53.378Z,21.6
2018-04-02T07:48:44.658Z,21.6
2018-04-02T07:49:34.479Z,21.6
2018-04-02T07:50:24.903Z,21.5
2018-04-02T07:51:14.237Z,21.5
2018-04-02T07:52:03.888Z,21.5
2018-04-02T07:52:54.438Z,21.5
2018-04-02T07:53:44.077Z,21.5
2018-04-02T07:54:34.554Z,21.5
2018-04-02T07:55:24.632Z,21.5
2018-04-02T07:56:14.333Z,21.4
2018-04-02T07:57:05.294Z,21.4
2018-04-02T07:57:54.781Z,21.4
2018-04-02T07:58:44.379Z,21.4
2018-04-02T07:59:34.548Z,21.4
2018-04-02T08:00:25.247Z,21.4
2018-04-02T08:01:15.071Z,21.4
2018-04-02T08:02:04.719Z,21.4
2018-04-02T08:02:55.674Z,21.4
2018-04-02T08:03:45.214Z,21.4
2018-04-02T08:04:34.909Z,21.4
2018-04-02T08:05:25.340Z,21.4
2018-04-02T08:06:15.185Z,21.3
2018-04-02T08:07:05.317Z,21.3
2018-04-02T08:07:55.592Z,21.3
2018-04-02T08:08:45.852Z,21.3
2018-04-02T08:09:35.246Z,21.3
2018-04-02T08:10:25.774Z,21.3
2018-04-02T08:11:17.051Z,21.3
2018-04-02T08:12:05.996Z,21.3
2018-04-02T08:12:55.417Z,21.3
2018-04-02T08:13:45.498Z,21.3
2018-04-02T08:14:35.989Z,21.3
2018-04-02T08:15:26.262Z,21.2
2018-04-02T08:16:16.328Z,21.2
2018-04-02T08:17:05.308Z,21.3
2018-04-02T08:17:56.602Z,21.3
2018-04-02T08:18:45.990Z,21.2
2018-04-02T08:19:36.612Z,21.2
2018-04-02T08:20:26.911Z,21.2
2018-04-02T08:21:16.503Z,21.2
2018-04-02T08:22:07.015Z,21.2
2018-04-02T08:24:36.236Z,21.2
2018-04-02T08:25:26.468Z,21.2
2018-04-02T08:26:17.188Z,21.2
2018-04-02T08:27:07.214Z,21.2
2018-04-02T08:27:56.596Z,21.2
2018-04-02T08:28:46.615Z,21.3
2018-04-02T08:29:37.581Z,21.3
2018-04-02T08:30:26.479Z,21.3
2018-04-02T08:31:17.036Z,21.3
2018-04-02T08:32:07.174Z,21.3
2018-04-02T08:32:57.986Z,21.3
2018-04-02T08:33:47.999Z,21.3
2018-04-02T08:34:36.276Z,21.3
2018-04-02T08:35:27.436Z,21.4
2018-04-02T08:36:17.906Z,21.4
2018-04-02T08:37:07.598Z,21.4
2018-04-02T08:37:58.254Z,21.4
2018-04-02T08:38:47.887Z,21.4
2018-04-02T08:39:37.653Z,21.4
2018-04-02T08:40:28.292Z,21.4
2018-04-02T08:41:17.982Z,21.3
2018-04-02T08:42:08.149Z,21.3
2018-04-02T08:42:57.898Z,21.3
2018-04-02T08:43:47.451Z,21.3
2018-04-02T08:44:37.571Z,21.3
2018-04-02T08:45:28.141Z,21.3
2018-04-02T08:46:19.426Z,21.2
2018-04-02T08:47:08.041Z,21.2
2018-04-02T08:47:58.439Z,21.2
2018-04-02T08:51:18.831Z,21.1
2018-04-02T08:52:08.042Z,21.1
2018-04-02T08:52:59.306Z,21.1
2018-04-02T08:53:48.851Z,21
2018-04-02T08:54:38.461Z,21
2018-04-02T08:55:28.696Z,21
2018-04-02T08:56:19.173Z,20.9
2018-04-02T08:57:09.890Z,21
2018-04-02T08:57:59.452Z,20.9
2018-04-02T08:58:48.942Z,20.9
2018-04-02T08:59:39.898Z,20.9
2018-04-02T09:00:28.890Z,20.9
2018-04-02T09:01:19.498Z,20.9
2018-04-02T09:02:09.263Z,20.9
2018-04-02T09:02:59.065Z,20.9
2018-04-02T09:03:49.405Z,20.9
2018-04-02T09:04:39.450Z,20.8
2018-04-02T09:05:29.660Z,20.8
2018-04-02T09:06:20.124Z,20.8
2018-04-02T09:07:10.087Z,20.8
2018-04-02T09:08:00.387Z,20.8
2018-04-02T09:08:50.182Z,20.8
2018-04-02T09:09:39.619Z,20.8
2018-04-02T09:10:30.085Z,20.8
2018-04-02T09:11:19.742Z,20.8
2018-04-02T09:12:10.436Z,20.8
2018-04-02T09:13:00.386Z,20.7
2018-04-02T09:13:50.550Z,20.7
2018-04-02T09:14:38.742Z,20.7
2018-04-02T09:15:31.325Z,20.7
2018-04-02T09:16:20.644Z,20.7
2018-04-02T09:17:10.192Z,20.7
2018-04-02T09:18:00.763Z,20.7
2018-04-02T09:18:50.781Z,20.6
2018-04-02T09:19:40.587Z,20.6
2018-04-02T09:20:30.924Z,20.6
2018-04-02T09:21:21.152Z,20.6
2018-04-02T09:22:10.385Z,20.6
2018-04-02T09:23:00.846Z,20.7
2018-04-02T09:23:51.156Z,20.6
2018-04-02T09:24:40.834Z,20.6
2018-04-02T09:25:31.013Z,20.6
2018-04-02T09:26:22.674Z,20.6
2018-04-02T09:27:10.631Z,20.6
2018-04-02T09:27:59.839Z,20.6
2018-04-02T09:28:49.881Z,20.6
2018-04-02T09:29:41.219Z,20.6
2018-04-02T09:30:31.241Z,20.6
2018-04-02T09:31:21.654Z,20.6
2018-04-02T09:32:11.492Z,20.6
2018-04-02T09:33:02.068Z,20.6
2018-04-02T09:33:51.788Z,20.6
2018-04-02T09:34:42.768Z,20.6
2018-04-02T09:35:31.817Z,20.6
2018-04-02T09:36:21.871Z,20.6
2018-04-02T09:37:12.376Z,20.5
2018-04-02T09:38:02.380Z,20.5
2018-04-02T09:38:52.759Z,20.5
2018-04-02T09:39:42.237Z,20.5
2018-04-02T09:40:32.461Z,20.5
2018-04-02T09:41:21.969Z,20.5
2018-04-02T09:42:12.964Z,20.5
2018-04-02T09:43:03.538Z,20.5
2018-04-02T09:43:53.618Z,20.4
2018-04-02T09:44:43.689Z,20.5
2018-04-02T09:45:33.233Z,20.4
2018-04-02T09:46:23.476Z,20.4
2018-04-02T09:47:14.117Z,20.4
2018-04-02T09:48:04.216Z,20.4
2018-04-02T09:48:54.257Z,20.4
2018-04-02T09:49:44.030Z,20.4
2018-04-02T09:50:34.064Z,20.4
2018-04-02T09:51:24.159Z,20.4
2018-04-02T09:52:14.477Z,20.4
2018-04-02T09:53:04.258Z,20.4
2018-04-02T09:53:54.337Z,20.4
2018-04-02T09:54:44.664Z,20.4
2018-04-02T09:55:34.162Z,20.4
2018-04-02T09:56:24.515Z,20.4
2018-04-02T09:57:14.877Z,20.4
2018-04-02T09:58:04.622Z,20.4
2018-04-02T09:58:54.678Z,20.4
2018-04-02T09:59:44.516Z,20.4
2018-04-02T10:00:35.134Z,20.4
2018-04-02T10:01:25.122Z,20.3
2018-04-02T10:02:14.944Z,20.3
2018-04-02T10:03:04.424Z,20.4
2018-04-02T10:03:54.771Z,20.4
2018-04-02T10:04:47.589Z,20.4
2018-04-02T10:05:34.586Z,20.4
2018-04-02T10:06:26.111Z,20.3
2018-04-02T10:07:15.303Z,20.3
2018-04-02T10:08:05.386Z,20.3
2018-04-02T10:08:55.408Z,20.3
2018-04-02T10:09:44.954Z,20.3
2018-04-02T10:10:35.360Z,20.3
2018-04-02T10:11:25.875Z,20.3
2018-04-02T10:12:15.087Z,20.3
2018-04-02T10:13:05.446Z,20.3
2018-04-02T10:13:55.846Z,20.3
2018-04-02T10:14:45.885Z,20.3
2018-04-02T10:15:35.954Z,20.3
2018-04-02T10:16:26.026Z,20.3
2018-04-02T10:17:15.740Z,20.3
2018-04-02T10:18:06.128Z,20.3
2018-04-02T10:18:56.141Z,20.3
2018-04-02T10:19:45.658Z,20.3
2018-04-02T10:20:35.354Z,20.3
2018-04-02T10:21:25.594Z,20.3
2018-04-02T10:22:15.036Z,20.3
2018-04-02T10:23:05.671Z,20.2
2018-04-02T10:23:56.514Z,20.2
2018-04-02T10:24:46.121Z,20.2
2018-04-02T10:25:35.543Z,20.2
2018-04-02T10:26:25.315Z,20.2
2018-04-02T10:27:15.615Z,20.2
2018-04-02T10:28:05.835Z,20.2
2018-04-02T10:28:55.650Z,20.2
2018-04-02T10:29:46.586Z,20.2
2018-04-02T10:30:35.184Z,20.2
2018-04-02T10:31:26.370Z,20.2
2018-04-02T10:32:15.639Z,20.1
2018-04-02T10:33:06.527Z,20.1
2018-04-02T10:33:56.727Z,20.1
2018-04-02T10:34:46.869Z,20.1
2018-04-02T10:35:35.540Z,20.1
2018-04-02T10:36:25.040Z,20.1
2018-04-02T10:37:15.994Z,20.1
2018-04-02T10:38:05.737Z,20.1
2018-04-02T10:38:56.604Z,20.1
2018-04-02T10:39:46.439Z,20.1
2018-04-02T10:40:36.537Z,20.1
2018-04-02T10:41:26.946Z,20.1
2018-04-02T10:42:16.544Z,20.1
2018-04-02T10:43:06.828Z,20.1
2018-04-02T10:43:56.563Z,20.1
2018-04-02T10:44:47.006Z,20.1
2018-04-02T10:45:35.999Z,20.1
2018-04-02T10:46:27.529Z,20.1
2018-04-02T10:47:16.819Z,20.1
2018-04-02T10:48:07.488Z,20.1
2018-04-02T10:48:57.383Z,20.1
2018-04-02T10:49:46.608Z,20.1
2018-04-02T10:50:36.857Z,20.1
2018-04-02T10:51:27.651Z,20.1
2018-04-02T10:52:17.849Z,20.1
2018-04-02T10:53:07.646Z,20
2018-04-02T10:53:57.560Z,20
2018-04-02T10:54:47.960Z,20
2018-04-02T10:55:36.676Z,20
2018-04-02T10:56:28.160Z,20.1
2018-04-02T10:57:17.254Z,20
2018-04-02T10:58:06.623Z,20
2018-04-02T10:58:58.243Z,20
2018-04-02T10:59:49.109Z,20
2018-04-02T11:00:37.180Z,20
2018-04-02T11:01:28.359Z,20
2018-04-02T11:02:18.515Z,20
2018-04-02T11:03:08.390Z,19.9
2018-04-02T11:03:58.947Z,20
2018-04-02T11:04:48.802Z,20
2018-04-02T11:05:39.099Z,20
2018-04-02T11:06:28.258Z,20
2018-04-02T11:07:18.490Z,19.9
2018-04-02T11:08:09.022Z,20
2018-04-02T11:08:58.252Z,19.9
2018-04-02T11:09:48.380Z,19.9
2018-04-02T11:10:39.418Z,19.9
2018-04-02T11:11:29.581Z,19.9
2018-04-02T11:12:18.192Z,19.9
2018-04-02T11:13:09.230Z,19.9
2018-04-02T11:13:58.467Z,19.9